createdAt,value
2024-02-18T00:00:17.816Z,20
2024-02-18T00:01:17.968Z,25
2024-02-18T00:02:17.809Z,20
2024-02-18T00:03:17.839Z,20
2024-02-18T00:04:17.830Z,20
2024-02-18T00:05:17.835Z,22
2024-02-18T00:06:17.838Z,21
2024-02-18T00:07:17.804Z,22
2024-02-18T00:08:17.807Z,20
2024-02-18T00:09:17.805Z,24
2024-02-18T00:10:17.773Z,19
2024-02-18T00:11:17.850Z,21
2024-02-18T00:12:17.826Z,20
2024-02-18T00:14:17.787Z,22
2024-02-18T00:15:17.844Z,24
2024-02-18T00:16:17.782Z,19
2024-02-18T00:17:17.784Z,21
2024-02-18T00:18:17.848Z,20
2024-02-18T00:19:17.863Z,19
2024-02-18T00:20:17.874Z,20
2024-02-18T00:21:17.914Z,20
2024-02-18T00:22:17.799Z,23
2024-02-18T00:23:17.774Z,20
2024-02-18T00:24:17.791Z,21
2024-02-18T00:25:17.794Z,20
2024-02-18T00:26:18.175Z,17
2024-02-18T00:27:17.826Z,20
2024-02-18T00:28:17.798Z,19
2024-02-18T00:29:17.811Z,22
2024-02-18T00:30:17.856Z,21
2024-02-18T00:31:17.787Z,24
2024-02-18T00:32:17.791Z,19
2024-02-18T00:33:17.952Z,23
2024-02-18T00:34:17.855Z,20
2024-02-18T00:35:17.773Z,21
2024-02-18T00:36:17.803Z,22
2024-02-18T00:37:17.828Z,24
2024-02-18T00:38:17.794Z,23
2024-02-18T00:39:17.900Z,22
2024-02-18T00:40:17.857Z,20
2024-02-18T00:41:17.781Z,21
2024-02-18T00:42:17.809Z,21
2024-02-18T00:43:17.772Z,20
2024-02-18T00:44:17.790Z,18
2024-02-18T00:45:17.848Z,25
2024-02-18T00:46:28.492Z,24
2024-02-18T00:47:17.764Z,19
2024-02-18T00:48:17.947Z,18
2024-02-18T00:49:17.864Z,23
2024-02-18T00:50:17.805Z,21
2024-02-18T00:51:17.826Z,21
2024-02-18T00:52:17.801Z,20
2024-02-18T00:53:17.784Z,21
2024-02-18T00:54:17.820Z,19
2024-02-18T00:55:17.769Z,19
2024-02-18T00:56:17.810Z,18
2024-02-18T00:57:17.802Z,18
2024-02-18T00:58:17.778Z,24
2024-02-18T00:59:17.774Z,20
2024-02-18T01:00:17.874Z,19
2024-02-18T01:02:17.786Z,19
2024-02-18T01:03:17.849Z,22
2024-02-18T01:04:17.999Z,22
2024-02-18T01:05:17.841Z,22
2024-02-18T01:07:17.784Z,20
2024-02-18T01:08:17.790Z,19
2024-02-18T01:09:17.853Z,20
2024-02-18T01:10:17.795Z,19
2024-02-18T01:11:17.898Z,19
2024-02-18T01:12:17.827Z,19
2024-02-18T01:13:17.774Z,19
2024-02-18T01:14:17.790Z,17
2024-02-18T01:15:17.971Z,21
2024-02-18T01:16:17.817Z,19
2024-02-18T01:17:17.805Z,17
2024-02-18T01:18:17.875Z,21
2024-02-18T01:19:17.979Z,19
2024-02-18T01:20:17.791Z,19
2024-02-18T01:21:18.036Z,20
2024-02-18T01:22:17.818Z,20
2024-02-18T01:23:17.816Z,19
2024-02-18T01:24:17.992Z,19
2024-02-18T01:25:17.784Z,18
2024-02-18T01:26:17.827Z,18
2024-02-18T01:27:17.816Z,18
2024-02-18T01:28:17.845Z,19
2024-02-18T01:29:17.797Z,19
2024-02-18T01:30:17.870Z,18
2024-02-18T01:31:17.777Z,20
2024-02-18T01:32:17.783Z,20
2024-02-18T01:33:17.894Z,18
2024-02-18T01:34:17.842Z,17
2024-02-18T01:35:17.864Z,16
2024-02-18T01:36:17.880Z,19
2024-02-18T01:37:17.801Z,18
2024-02-18T01:38:17.836Z,18
2024-02-18T01:39:17.961Z,17
2024-02-18T01:40:17.813Z,15
2024-02-18T01:41:17.792Z,18
2024-02-18T01:42:17.790Z,18
2024-02-18T01:43:17.824Z,16
2024-02-18T01:44:17.781Z,17
2024-02-18T01:45:17.932Z,19
2024-02-18T01:46:17.792Z,16
2024-02-18T01:47:17.785Z,20
2024-02-18T01:48:17.909Z,23
2024-02-18T01:49:17.889Z,20
2024-02-18T01:50:18.038Z,20
2024-02-18T01:51:17.885Z,22
2024-02-18T01:52:17.815Z,19
2024-02-18T01:53:17.796Z,21
2024-02-18T01:54:17.795Z,20
2024-02-18T01:55:17.805Z,23
2024-02-18T01:56:17.782Z,21
2024-02-18T01:57:17.773Z,21
2024-02-18T01:58:17.777Z,24
2024-02-18T01:59:17.799Z,22
2024-02-18T02:00:17.809Z,20
2024-02-18T02:01:17.917Z,21
2024-02-18T02:02:17.779Z,20
2024-02-18T02:03:17.781Z,19
2024-02-18T02:04:17.914Z,22
2024-02-18T02:05:17.868Z,21
2024-02-18T02:06:17.907Z,19
2024-02-18T02:07:17.805Z,20
2024-02-18T02:08:17.781Z,19
2024-02-18T02:09:17.788Z,17
2024-02-18T02:10:17.814Z,21
2024-02-18T02:11:17.841Z,19
2024-02-18T02:12:17.790Z,22
2024-02-18T02:13:17.796Z,23
2024-02-18T02:14:17.855Z,19
2024-02-18T02:15:17.822Z,23
2024-02-18T02:16:17.798Z,21
2024-02-18T02:17:17.772Z,23
2024-02-18T02:18:17.836Z,22
2024-02-18T02:19:17.868Z,19
2024-02-18T02:20:17.795Z,20
2024-02-18T02:21:17.799Z,21
2024-02-18T02:22:17.818Z,19
2024-02-18T02:23:17.809Z,18
2024-02-18T02:24:17.792Z,20
2024-02-18T02:25:17.812Z,21
2024-02-18T02:26:17.789Z,21
2024-02-18T02:27:17.805Z,20
2024-02-18T02:28:17.785Z,20
2024-02-18T02:29:17.802Z,21
2024-02-18T02:30:17.774Z,20
2024-02-18T02:31:17.831Z,20
2024-02-18T02:32:17.791Z,20
2024-02-18T02:33:17.786Z,19
2024-02-18T02:34:17.886Z,22
2024-02-18T02:35:17.929Z,21
2024-02-18T02:36:17.779Z,19
2024-02-18T02:37:17.812Z,21
2024-02-18T02:38:17.830Z,24
2024-02-18T02:39:17.796Z,21
2024-02-18T02:40:17.805Z,18
2024-02-18T02:41:17.777Z,18
2024-02-18T02:42:17.785Z,20
2024-02-18T02:43:17.937Z,20
2024-02-18T02:44:17.799Z,19
2024-02-18T02:45:17.815Z,21
2024-02-18T02:46:17.865Z,20
2024-02-18T02:47:17.787Z,20
2024-02-18T02:48:17.799Z,18
2024-02-18T02:49:17.936Z,18
2024-02-18T02:50:17.793Z,19
2024-02-18T02:51:17.781Z,21
2024-02-18T02:52:17.927Z,19
2024-02-18T02:53:17.957Z,19
2024-02-18T02:54:18.155Z,19
2024-02-18T02:55:17.778Z,18
2024-02-18T02:56:17.791Z,19
2024-02-18T02:57:17.811Z,20
2024-02-18T02:58:17.801Z,21
2024-02-18T02:59:17.784Z,20
2024-02-18T03:00:17.792Z,20
2024-02-18T03:01:17.918Z,20
2024-02-18T03:02:17.787Z,19
2024-02-18T03:03:17.767Z,18
2024-02-18T03:04:17.886Z,20
2024-02-18T03:05:17.844Z,20
2024-02-18T03:06:22.917Z,26
2024-02-18T03:07:17.845Z,19
2024-02-18T03:08:17.807Z,21
2024-02-18T03:09:17.798Z,19
2024-02-18T03:10:17.787Z,21
2024-02-18T03:11:17.791Z,21
2024-02-18T03:12:17.855Z,18
2024-02-18T03:13:17.888Z,20
2024-02-18T03:14:17.783Z,21
2024-02-18T03:15:17.786Z,20
2024-02-18T03:16:17.785Z,18
2024-02-18T03:17:17.800Z,19
2024-02-18T03:18:17.872Z,19
2024-02-18T03:19:18.334Z,21
2024-02-18T03:20:17.847Z,21
2024-02-18T03:21:17.805Z,18
2024-02-18T03:22:17.805Z,18
2024-02-18T03:23:17.805Z,19
2024-02-18T03:24:17.799Z,18
2024-02-18T03:25:17.813Z,19
2024-02-18T03:27:17.789Z,18
2024-02-18T03:28:17.794Z,18
2024-02-18T03:29:17.789Z,20
2024-02-18T03:30:17.806Z,18
2024-02-18T03:31:17.794Z,17
2024-02-18T03:32:17.797Z,18
2024-02-18T03:33:17.780Z,17
2024-02-18T03:34:17.902Z,21
2024-02-18T03:35:17.819Z,18
2024-02-18T03:36:17.789Z,21
2024-02-18T03:37:17.825Z,20
2024-02-18T03:38:17.859Z,20
2024-02-18T03:39:19.835Z,19
2024-02-18T03:40:17.836Z,18
2024-02-18T03:41:17.782Z,19
2024-02-18T03:42:17.786Z,20
2024-02-18T03:43:17.812Z,17
2024-02-18T03:44:17.793Z,18
2024-02-18T03:45:17.804Z,18
2024-02-18T03:46:17.792Z,20
2024-02-18T03:47:17.782Z,19
2024-02-18T03:48:17.876Z,16
2024-02-18T03:49:17.927Z,21
2024-02-18T03:50:17.792Z,18
2024-02-18T03:51:17.798Z,16
2024-02-18T03:52:17.798Z,17
2024-02-18T03:53:17.808Z,19
2024-02-18T03:54:17.781Z,18
2024-02-18T03:55:17.782Z,16
2024-02-18T03:56:17.781Z,18
2024-02-18T03:57:17.816Z,18
2024-02-18T03:58:17.802Z,18
2024-02-18T04:00:17.782Z,18
2024-02-18T04:01:17.867Z,18
2024-02-18T04:02:17.804Z,16
2024-02-18T04:03:17.806Z,17
2024-02-18T04:04:17.934Z,17
2024-02-18T04:05:17.946Z,18
2024-02-18T04:06:17.872Z,18
2024-02-18T04:07:17.875Z,17
2024-02-18T04:08:17.786Z,15
2024-02-18T04:09:17.795Z,16
2024-02-18T04:10:20.075Z,16
2024-02-18T04:11:17.819Z,17
2024-02-18T04:12:17.794Z,16
2024-02-18T04:13:17.859Z,15
2024-02-18T04:14:17.794Z,13
2024-02-18T04:15:17.809Z,15
2024-02-18T04:16:17.789Z,15
2024-02-18T04:17:17.784Z,15
2024-02-18T04:18:17.957Z,15
2024-02-18T04:19:17.862Z,16
2024-02-18T04:20:18.095Z,16
2024-02-18T04:22:17.835Z,15
2024-02-18T04:23:17.800Z,14
2024-02-18T04:24:17.811Z,14
2024-02-18T04:25:17.787Z,13
2024-02-18T04:26:17.798Z,14
2024-02-18T04:27:17.788Z,16
2024-02-18T04:28:17.793Z,15
2024-02-18T04:29:17.801Z,15
2024-02-18T04:30:17.807Z,16
2024-02-18T04:31:17.764Z,15
2024-02-18T04:32:17.856Z,14
2024-02-18T04:33:18.164Z,13
2024-02-18T04:34:18.272Z,15
2024-02-18T04:35:17.869Z,12
2024-02-18T04:36:17.928Z,12
2024-02-18T04:37:17.802Z,13
2024-02-18T04:38:17.810Z,13
2024-02-18T04:39:17.812Z,16
2024-02-18T04:40:17.843Z,14
2024-02-18T04:41:17.818Z,14
2024-02-18T04:42:17.836Z,13
2024-02-18T04:43:17.794Z,11
2024-02-18T04:44:17.791Z,13
2024-02-18T04:45:17.817Z,14
2024-02-18T04:46:17.834Z,13
2024-02-18T04:47:17.800Z,15
2024-02-18T04:48:17.905Z,14
2024-02-18T04:49:17.825Z,15
2024-02-18T04:50:17.793Z,12
2024-02-18T04:51:17.794Z,13
2024-02-18T04:52:17.825Z,14
2024-02-18T04:53:17.788Z,15
2024-02-18T04:54:17.793Z,14
2024-02-18T04:55:17.862Z,13
2024-02-18T04:56:17.804Z,12
2024-02-18T04:57:17.818Z,11
2024-02-18T04:58:17.797Z,13
2024-02-18T04:59:17.838Z,13
2024-02-18T05:00:17.797Z,13
2024-02-18T05:01:17.881Z,13
2024-02-18T05:02:17.803Z,13
2024-02-18T05:03:17.861Z,13
2024-02-18T05:04:17.867Z,13
2024-02-18T05:06:17.802Z,15
2024-02-18T05:07:17.819Z,13
2024-02-18T05:08:17.792Z,12
2024-02-18T05:09:17.812Z,13
2024-02-18T05:10:17.802Z,13
2024-02-18T05:11:17.827Z,13
2024-02-18T05:12:17.804Z,11
2024-02-18T05:13:17.810Z,12
2024-02-18T05:14:17.778Z,11
2024-02-18T05:15:17.790Z,15
2024-02-18T05:16:17.798Z,13
2024-02-18T05:17:17.830Z,13
2024-02-18T05:18:17.913Z,12
2024-02-18T05:19:17.904Z,12
2024-02-18T05:20:17.802Z,12
2024-02-18T05:21:17.869Z,12
2024-02-18T05:22:17.813Z,13
2024-02-18T05:23:17.803Z,13
2024-02-18T05:24:17.792Z,13
2024-02-18T05:25:17.799Z,11
2024-02-18T05:26:17.951Z,16
2024-02-18T05:27:17.789Z,13
2024-02-18T05:28:17.790Z,13
2024-02-18T05:29:17.803Z,11
2024-02-18T05:30:17.806Z,15
2024-02-18T05:32:17.781Z,12
2024-02-18T05:33:17.862Z,13
2024-02-18T05:34:18.029Z,9
2024-02-18T05:35:17.868Z,10
2024-02-18T05:37:17.827Z,11
2024-02-18T05:38:17.832Z,13
2024-02-18T05:39:17.786Z,9
2024-02-18T05:40:17.810Z,11
2024-02-18T05:41:17.797Z,9
2024-02-18T05:42:17.797Z,11
2024-02-18T05:43:17.847Z,10
2024-02-18T05:44:17.802Z,11
2024-02-18T05:45:17.809Z,9
2024-02-18T05:46:17.786Z,12
2024-02-18T05:47:17.791Z,10
2024-02-18T05:48:17.834Z,11
2024-02-18T05:49:17.869Z,10
2024-02-18T05:50:17.793Z,9
2024-02-18T05:51:17.791Z,11
2024-02-18T05:52:17.818Z,10
2024-02-18T05:53:17.783Z,10
2024-02-18T05:54:17.812Z,9
2024-02-18T05:55:17.852Z,9
2024-02-18T05:56:17.807Z,8
2024-02-18T05:57:17.795Z,11
2024-02-18T05:58:17.878Z,10
2024-02-18T05:59:17.814Z,9
2024-02-18T06:00:17.803Z,9
2024-02-18T06:01:17.946Z,10
2024-02-18T06:03:17.806Z,8
2024-02-18T06:04:17.822Z,9
2024-02-18T06:05:17.843Z,11
2024-02-18T06:06:17.858Z,9
2024-02-18T06:07:17.884Z,11
2024-02-18T06:08:17.824Z,9
2024-02-18T06:09:17.816Z,9
2024-02-18T06:10:17.907Z,10
2024-02-18T06:11:20.676Z,8
2024-02-18T06:12:17.792Z,8
2024-02-18T06:13:17.815Z,9
2024-02-18T06:14:17.827Z,8
2024-02-18T06:15:17.795Z,11
2024-02-18T06:16:17.845Z,9
2024-02-18T06:17:17.798Z,10
2024-02-18T06:18:17.862Z,8
2024-02-18T06:19:18.281Z,10
2024-02-18T06:20:17.823Z,10
2024-02-18T06:21:17.791Z,9
2024-02-18T06:22:17.917Z,9
2024-02-18T06:23:17.808Z,9
2024-02-18T06:24:17.809Z,11
2024-02-18T06:25:17.870Z,9
2024-02-18T06:26:17.783Z,9
2024-02-18T06:27:17.812Z,8
2024-02-18T06:28:17.837Z,8
2024-02-18T06:29:17.810Z,9
2024-02-18T06:30:17.811Z,10
2024-02-18T06:31:20.182Z,9
2024-02-18T06:33:17.846Z,8
2024-02-18T06:34:17.995Z,8
2024-02-18T06:35:17.913Z,9
2024-02-18T06:36:17.829Z,7
2024-02-18T06:37:17.872Z,10
2024-02-18T06:39:18.383Z,11
2024-02-18T06:40:17.868Z,9
2024-02-18T06:41:17.842Z,8
2024-02-18T06:42:17.810Z,7
2024-02-18T06:43:17.859Z,9
2024-02-18T06:44:17.780Z,9
2024-02-18T06:45:17.802Z,8
2024-02-18T06:46:17.957Z,9
2024-02-18T06:47:17.803Z,7
2024-02-18T06:48:17.958Z,8
2024-02-18T06:49:17.861Z,7
2024-02-18T06:50:17.798Z,9
2024-02-18T06:51:17.774Z,9
2024-02-18T06:52:17.831Z,9
2024-02-18T06:53:17.882Z,8
2024-02-18T06:54:17.808Z,7
2024-02-18T06:55:17.829Z,8
2024-02-18T06:56:17.820Z,9
2024-02-18T06:57:17.816Z,8
2024-02-18T06:58:17.820Z,7
2024-02-18T06:59:17.806Z,8
2024-02-18T07:00:17.827Z,8
2024-02-18T07:01:17.864Z,9
2024-02-18T07:02:17.807Z,8
2024-02-18T07:03:17.797Z,9
2024-02-18T07:04:17.904Z,8
2024-02-18T07:05:17.899Z,9
2024-02-18T07:06:17.853Z,7
2024-02-18T07:07:17.905Z,7
2024-02-18T07:08:17.784Z,7
2024-02-18T07:09:17.793Z,7
2024-02-18T07:10:17.807Z,8
2024-02-18T07:11:17.818Z,7
2024-02-18T07:12:17.803Z,9
2024-02-18T07:13:17.840Z,8
2024-02-18T07:14:17.789Z,9
2024-02-18T07:15:17.807Z,9
2024-02-18T07:16:17.844Z,9
2024-02-18T07:17:17.792Z,8
2024-02-18T07:18:17.896Z,7
2024-02-18T07:19:17.960Z,12
2024-02-18T07:20:17.876Z,10
2024-02-18T07:21:17.800Z,8
2024-02-18T07:22:17.882Z,8
2024-02-18T07:23:17.813Z,9
2024-02-18T07:24:17.786Z,9
2024-02-18T07:25:17.842Z,7
2024-02-18T07:26:17.790Z,8
2024-02-18T07:27:17.803Z,7
2024-02-18T07:28:17.923Z,10
2024-02-18T07:29:17.818Z,7
2024-02-18T07:30:17.810Z,10
2024-02-18T07:32:17.797Z,8
2024-02-18T07:33:17.871Z,8
2024-02-18T07:34:17.997Z,7
2024-02-18T07:35:17.792Z,8
2024-02-18T07:36:17.793Z,8
2024-02-18T07:37:17.913Z,8
2024-02-18T07:38:17.811Z,10
2024-02-18T07:39:17.791Z,10
2024-02-18T07:40:17.853Z,10
2024-02-18T07:41:17.804Z,10
2024-02-18T07:42:17.835Z,9
2024-02-18T07:43:17.809Z,8
2024-02-18T07:44:17.815Z,8
2024-02-18T07:45:17.806Z,9
2024-02-18T07:46:17.833Z,10
2024-02-18T07:47:17.811Z,7
2024-02-18T07:48:17.916Z,7
2024-02-18T07:49:17.936Z,8
2024-02-18T07:50:17.821Z,9
2024-02-18T07:51:17.859Z,8
2024-02-18T07:52:17.831Z,8
2024-02-18T07:53:17.810Z,9
2024-02-18T07:54:17.808Z,8
2024-02-18T07:55:17.860Z,9
2024-02-18T07:56:17.829Z,8
2024-02-18T07:57:17.815Z,8
2024-02-18T07:58:17.793Z,8
2024-02-18T07:59:18.138Z,8
2024-02-18T08:00:17.857Z,8
2024-02-18T08:01:17.876Z,10
2024-02-18T08:02:17.801Z,7
2024-02-18T08:03:17.848Z,8
2024-02-18T08:04:17.861Z,8
2024-02-18T08:05:17.829Z,8
2024-02-18T08:06:17.849Z,8
2024-02-18T08:07:17.880Z,8
2024-02-18T08:08:17.820Z,7
2024-02-18T08:09:17.807Z,8
2024-02-18T08:10:17.905Z,7
2024-02-18T08:11:17.852Z,8
2024-02-18T08:12:17.809Z,8
2024-02-18T08:13:17.902Z,8
2024-02-18T08:14:17.818Z,7
2024-02-18T08:15:17.807Z,7
2024-02-18T08:16:17.893Z,8
2024-02-18T08:17:17.804Z,8
2024-02-18T08:18:17.919Z,7
2024-02-18T08:19:17.893Z,10
2024-02-18T08:20:17.805Z,8
2024-02-18T08:21:17.813Z,7
2024-02-18T08:22:17.934Z,8
2024-02-18T08:23:17.895Z,7
2024-02-18T08:24:17.811Z,9
2024-02-18T08:25:17.868Z,7
2024-02-18T08:26:17.824Z,7
2024-02-18T08:27:17.842Z,7
2024-02-18T08:28:17.845Z,8
2024-02-18T08:29:17.820Z,8
2024-02-18T08:30:17.831Z,7
2024-02-18T08:31:17.799Z,9
2024-02-18T08:32:17.786Z,7
2024-02-18T08:33:17.868Z,7
2024-02-18T08:34:17.946Z,7
2024-02-18T08:35:17.858Z,10
2024-02-18T08:36:17.810Z,8
2024-02-18T08:37:17.828Z,8
2024-02-18T08:38:17.822Z,9
2024-02-18T08:39:17.810Z,7
2024-02-18T08:40:17.868Z,7
2024-02-18T08:41:17.806Z,9
2024-02-18T08:42:17.831Z,6
2024-02-18T08:43:17.844Z,8
2024-02-18T08:44:17.789Z,8
2024-02-18T08:45:17.802Z,7
2024-02-18T08:46:17.846Z,6
2024-02-18T08:47:17.827Z,6
2024-02-18T08:48:17.850Z,6
2024-02-18T08:49:17.895Z,8
2024-02-18T08:50:17.843Z,7
2024-02-18T08:51:17.787Z,8
2024-02-18T08:52:17.893Z,6
2024-02-18T08:53:17.838Z,7
2024-02-18T08:54:17.810Z,5
2024-02-18T08:55:17.846Z,6
2024-02-18T08:56:17.805Z,9
2024-02-18T08:57:17.802Z,7
2024-02-18T08:58:17.788Z,6
2024-02-18T08:59:17.823Z,5
2024-02-18T09:00:17.806Z,6
2024-02-18T09:01:17.846Z,6
2024-02-18T09:02:17.862Z,7
2024-02-18T09:03:17.802Z,5
2024-02-18T09:04:17.826Z,6
2024-02-18T09:05:18.117Z,5
2024-02-18T09:06:17.913Z,4
2024-02-18T09:07:17.851Z,5
2024-02-18T09:08:17.817Z,8
2024-02-18T09:09:17.832Z,5
2024-02-18T09:10:17.814Z,6
2024-02-18T09:11:17.960Z,5
2024-02-18T09:12:17.814Z,7
2024-02-18T09:13:17.839Z,5
2024-02-18T09:14:17.871Z,5
2024-02-18T09:15:17.817Z,6
2024-02-18T09:16:17.839Z,5
2024-02-18T09:17:17.785Z,5
2024-02-18T09:18:17.856Z,9
2024-02-18T09:19:17.991Z,4
2024-02-18T09:20:17.934Z,6
2024-02-18T09:21:17.820Z,7
2024-02-18T09:22:17.825Z,4
2024-02-18T09:23:17.781Z,6
2024-02-18T09:24:17.808Z,7
2024-02-18T09:25:17.824Z,5
2024-02-18T09:26:17.815Z,4
2024-02-18T09:27:17.848Z,5
2024-02-18T09:28:17.842Z,3
2024-02-18T09:29:17.816Z,5
2024-02-18T09:30:17.809Z,4
2024-02-18T09:31:17.959Z,4
2024-02-18T09:32:17.816Z,5
2024-02-18T09:33:17.869Z,7
2024-02-18T09:34:17.989Z,4
2024-02-18T09:35:17.974Z,6
2024-02-18T09:36:17.836Z,4
2024-02-18T09:37:17.864Z,6
2024-02-18T09:38:17.806Z,4
2024-02-18T09:39:17.792Z,6
2024-02-18T09:40:17.834Z,6
2024-02-18T09:41:17.799Z,4
2024-02-18T09:42:17.790Z,5
2024-02-18T09:43:17.801Z,5
2024-02-18T09:44:17.799Z,7
2024-02-18T09:45:17.806Z,5
2024-02-18T09:46:17.833Z,6
2024-02-18T09:47:17.812Z,4
2024-02-18T09:48:17.923Z,5
2024-02-18T09:49:17.939Z,6
2024-02-18T09:50:17.796Z,4
2024-02-18T09:51:17.799Z,5
2024-02-18T09:52:17.905Z,5
2024-02-18T09:53:17.842Z,7
2024-02-18T09:54:17.791Z,5
2024-02-18T09:55:17.824Z,4
2024-02-18T09:56:17.812Z,4
2024-02-18T09:57:17.800Z,3
2024-02-18T09:58:17.902Z,3
2024-02-18T09:59:17.804Z,4
2024-02-18T10:00:17.812Z,4
2024-02-18T10:01:17.841Z,5
2024-02-18T10:02:17.820Z,2
2024-02-18T10:03:17.813Z,5
2024-02-18T10:04:17.872Z,3
2024-02-18T10:05:18.009Z,4
2024-02-18T10:07:17.877Z,4
2024-02-18T10:08:17.783Z,5
2024-02-18T10:09:17.802Z,4
2024-02-18T10:10:17.869Z,4
2024-02-18T10:11:17.835Z,5
2024-02-18T10:12:17.848Z,5
2024-02-18T10:13:17.869Z,5
2024-02-18T10:14:17.793Z,4
2024-02-18T10:15:17.789Z,4
2024-02-18T10:16:17.810Z,6
2024-02-18T10:17:17.810Z,6
2024-02-18T10:18:17.867Z,4
2024-02-18T10:19:17.938Z,3
2024-02-18T10:20:17.808Z,5
2024-02-18T10:21:17.851Z,4
2024-02-18T10:22:17.885Z,6
2024-02-18T10:23:17.819Z,5
2024-02-18T10:24:17.815Z,5
2024-02-18T10:25:17.841Z,5
2024-02-18T10:26:17.801Z,6
2024-02-18T10:27:17.870Z,4
2024-02-18T10:28:18.030Z,4
2024-02-18T10:29:17.816Z,4
2024-02-18T10:30:17.822Z,4
2024-02-18T10:31:17.902Z,5
2024-02-18T10:32:17.814Z,4
2024-02-18T10:33:17.882Z,5
2024-02-18T10:34:18.129Z,5
2024-02-18T10:35:18.011Z,4
2024-02-18T10:36:18.110Z,6
2024-02-18T10:37:17.939Z,5
2024-02-18T10:38:17.819Z,5
2024-02-18T10:39:17.804Z,4
2024-02-18T10:40:17.828Z,8
2024-02-18T10:41:17.847Z,6
2024-02-18T10:42:17.826Z,4
2024-02-18T10:43:17.836Z,4
2024-02-18T10:44:17.826Z,5
2024-02-18T10:45:17.815Z,3
2024-02-18T10:46:17.928Z,4
2024-02-18T10:47:17.821Z,4
2024-02-18T10:48:17.884Z,5
2024-02-18T10:49:17.871Z,5
2024-02-18T10:50:17.829Z,4
2024-02-18T10:51:17.811Z,5
2024-02-18T10:52:17.863Z,4
2024-02-18T10:53:17.829Z,4
2024-02-18T10:54:17.799Z,4
2024-02-18T10:55:17.874Z,4
2024-02-18T10:56:17.801Z,4
2024-02-18T10:57:17.803Z,5
2024-02-18T10:58:17.926Z,5
2024-02-18T10:59:17.795Z,4
2024-02-18T11:00:17.817Z,5
2024-02-18T11:02:17.799Z,6
2024-02-18T11:03:17.786Z,4
2024-02-18T11:04:17.888Z,3
2024-02-18T11:05:17.833Z,5
2024-02-18T11:07:17.954Z,3
2024-02-18T11:08:17.832Z,4
2024-02-18T11:09:17.787Z,4
2024-02-18T11:10:17.933Z,4
2024-02-18T11:11:17.845Z,6
2024-02-18T11:12:17.807Z,4
2024-02-18T11:13:17.854Z,4
2024-02-18T11:14:17.803Z,5
2024-02-18T11:15:17.815Z,7
2024-02-18T11:16:17.853Z,4
2024-02-18T11:17:17.797Z,5
2024-02-18T11:18:17.952Z,4
2024-02-18T11:19:17.933Z,5
2024-02-18T11:20:17.800Z,3
2024-02-18T11:21:17.885Z,4
2024-02-18T11:22:17.869Z,5
2024-02-18T11:23:17.802Z,8
2024-02-18T11:24:17.806Z,5
2024-02-18T11:25:17.824Z,5
2024-02-18T11:26:17.802Z,5
2024-02-18T11:27:17.817Z,3
2024-02-18T11:28:17.864Z,5
2024-02-18T11:29:17.806Z,7
2024-02-18T11:30:17.806Z,7
2024-02-18T11:31:17.897Z,7
2024-02-18T11:32:17.794Z,6
2024-02-18T11:33:17.923Z,5
2024-02-18T11:34:17.897Z,6
2024-02-18T11:35:17.839Z,6
2024-02-18T11:36:17.842Z,4
2024-02-18T11:37:17.882Z,5
2024-02-18T11:38:17.789Z,4
2024-02-18T11:39:17.816Z,5
2024-02-18T11:40:17.875Z,6
2024-02-18T11:41:17.830Z,5
2024-02-18T11:42:17.813Z,5
2024-02-18T11:43:17.879Z,3
2024-02-18T11:44:17.808Z,5
2024-02-18T11:45:17.813Z,5
2024-02-18T11:46:17.900Z,4
2024-02-18T11:47:17.818Z,5
2024-02-18T11:48:17.916Z,4
2024-02-18T11:49:18.146Z,5
2024-02-18T11:50:17.810Z,6
2024-02-18T11:51:17.820Z,7
2024-02-18T11:52:20.081Z,5
2024-02-18T11:53:17.807Z,5
2024-02-18T11:54:17.825Z,5
2024-02-18T11:55:17.883Z,4
2024-02-18T11:56:17.817Z,4
2024-02-18T11:57:17.815Z,5
2024-02-18T11:58:17.854Z,4
2024-02-18T12:00:17.980Z,5
2024-02-18T12:01:18.010Z,5
2024-02-18T12:02:17.807Z,7
2024-02-18T12:03:17.818Z,7
2024-02-18T12:04:17.839Z,5
2024-02-18T12:05:17.870Z,4
2024-02-18T12:06:17.928Z,4
2024-02-18T12:07:18.066Z,5
2024-02-18T12:08:17.837Z,4
2024-02-18T12:09:17.829Z,5
2024-02-18T12:10:17.838Z,5
2024-02-18T12:11:18.048Z,4
2024-02-18T12:12:17.872Z,4
2024-02-18T12:13:17.858Z,5
2024-02-18T12:14:17.811Z,6
2024-02-18T12:15:17.826Z,4
2024-02-18T12:16:17.923Z,5
2024-02-18T12:17:17.869Z,6
2024-02-18T12:19:17.888Z,6
2024-02-18T12:20:17.830Z,6
2024-02-18T12:21:17.840Z,5
2024-02-18T12:22:17.891Z,4
2024-02-18T12:23:17.833Z,4
2024-02-18T12:24:17.819Z,2
2024-02-18T12:25:18.039Z,5
2024-02-18T12:26:17.823Z,4
2024-02-18T12:27:17.809Z,5
2024-02-18T12:28:18.012Z,3
2024-02-18T12:29:17.818Z,4
2024-02-18T12:30:17.818Z,4
2024-02-18T12:31:17.886Z,5
2024-02-18T12:32:17.828Z,4
2024-02-18T12:33:17.920Z,7
2024-02-18T12:34:17.911Z,6
2024-02-18T12:35:17.890Z,7
2024-02-18T12:36:17.821Z,5
2024-02-18T12:37:27.506Z,5
2024-02-18T12:38:17.817Z,5
2024-02-18T12:39:17.794Z,4
2024-02-18T12:40:17.990Z,6
2024-02-18T12:41:17.848Z,5
2024-02-18T12:42:17.833Z,5
2024-02-18T12:43:50.990Z,3
2024-02-18T12:44:54.661Z,3
2024-02-18T12:45:40.636Z,5
2024-02-18T12:46:17.884Z,4
2024-02-18T12:47:18.067Z,5
2024-02-18T12:48:18.110Z,4
2024-02-18T12:49:17.907Z,5
2024-02-18T12:50:17.972Z,4
2024-02-18T12:51:17.922Z,3
2024-02-18T12:52:17.850Z,4
2024-02-18T12:53:17.850Z,4
2024-02-18T12:54:17.828Z,6
2024-02-18T12:55:17.868Z,3
2024-02-18T12:56:17.880Z,3
2024-02-18T12:57:17.818Z,3
2024-02-18T12:58:17.829Z,3
2024-02-18T12:59:17.817Z,2
2024-02-18T13:00:17.823Z,3
2024-02-18T13:01:17.955Z,5
2024-02-18T13:02:17.820Z,4
2024-02-18T13:03:17.840Z,3
2024-02-18T13:04:17.900Z,4
2024-02-18T13:05:17.928Z,4
2024-02-18T13:06:17.891Z,5
2024-02-18T13:07:17.859Z,5
2024-02-18T13:08:17.875Z,6
2024-02-18T13:09:17.830Z,4
2024-02-18T13:10:17.836Z,3
2024-02-18T13:11:18.474Z,4
2024-02-18T13:12:17.845Z,3
2024-02-18T13:13:17.820Z,4
2024-02-18T13:14:17.813Z,4
2024-02-18T13:15:17.828Z,2
2024-02-18T13:16:17.872Z,5
2024-02-18T13:17:18.124Z,5
2024-02-18T13:18:17.860Z,5
2024-02-18T13:19:17.984Z,6
2024-02-18T13:20:17.809Z,3
2024-02-18T13:21:17.848Z,3
2024-02-18T13:22:17.964Z,5
2024-02-18T13:23:17.896Z,3
2024-02-18T13:24:17.820Z,5
2024-02-18T13:25:18.098Z,5
2024-02-18T13:26:17.840Z,5
2024-02-18T13:27:17.837Z,2
2024-02-18T13:28:18.627Z,4
2024-02-18T13:29:17.882Z,5
2024-02-18T13:30:19.747Z,4
2024-02-18T13:31:17.839Z,5
2024-02-18T13:32:17.860Z,5
2024-02-18T13:33:17.850Z,5
2024-02-18T13:34:17.919Z,3
2024-02-18T13:35:18.054Z,3
2024-02-18T13:36:21.156Z,4
2024-02-18T13:37:17.873Z,5
2024-02-18T13:38:17.805Z,3
2024-02-18T13:39:17.799Z,4
2024-02-18T13:40:17.849Z,3
2024-02-18T13:41:17.844Z,4
2024-02-18T13:42:20.805Z,4
2024-02-18T13:43:17.934Z,5
2024-02-18T13:44:17.831Z,5
2024-02-18T13:45:17.815Z,5
2024-02-18T13:46:17.946Z,4
2024-02-18T13:47:17.808Z,5
2024-02-18T13:48:17.941Z,4
2024-02-18T13:49:17.946Z,4
2024-02-18T13:50:17.949Z,4
2024-02-18T13:51:17.826Z,4
2024-02-18T13:52:17.825Z,4
2024-02-18T13:53:17.844Z,4
2024-02-18T13:54:17.814Z,4
2024-02-18T13:55:17.849Z,5
2024-02-18T13:56:17.825Z,4
2024-02-18T13:57:17.838Z,5
2024-02-18T13:58:17.844Z,4
2024-02-18T13:59:17.821Z,5
2024-02-18T14:00:17.822Z,5
2024-02-18T14:01:17.886Z,5
2024-02-18T14:02:17.855Z,7
2024-02-18T14:03:17.843Z,4
2024-02-18T14:04:17.835Z,4
2024-02-18T14:05:17.845Z,4
2024-02-18T14:06:17.825Z,3
2024-02-18T14:07:17.845Z,2
2024-02-18T14:09:17.849Z,4
2024-02-18T14:10:17.951Z,3
2024-02-18T14:11:17.843Z,3
2024-02-18T14:12:17.821Z,4
2024-02-18T14:13:17.892Z,3
2024-02-18T14:14:17.819Z,4
2024-02-18T14:15:17.815Z,4
2024-02-18T14:16:17.866Z,3
2024-02-18T14:17:17.823Z,4
2024-02-18T14:18:17.999Z,2
2024-02-18T14:19:17.933Z,4
2024-02-18T14:20:18.133Z,5
2024-02-18T14:21:18.210Z,3
2024-02-18T14:22:17.938Z,3
2024-02-18T14:23:18.020Z,5
2024-02-18T14:24:17.833Z,4
2024-02-18T14:25:17.857Z,4
2024-02-18T14:26:17.808Z,5
2024-02-18T14:27:18.203Z,4
2024-02-18T14:28:17.869Z,4
2024-02-18T14:29:17.818Z,5
2024-02-18T14:30:17.821Z,3
2024-02-18T14:31:17.887Z,4
2024-02-18T14:32:20.287Z,4
2024-02-18T14:33:17.936Z,4
2024-02-18T14:34:17.983Z,4
2024-02-18T14:35:17.939Z,4
2024-02-18T14:36:17.805Z,4
2024-02-18T14:37:17.834Z,4
2024-02-18T14:38:17.827Z,4
2024-02-18T14:39:17.828Z,4
2024-02-18T14:40:17.914Z,4
2024-02-18T14:41:17.827Z,4
2024-02-18T14:42:17.821Z,4
2024-02-18T14:43:17.884Z,4
2024-02-18T14:44:17.808Z,5
2024-02-18T14:45:17.841Z,5
2024-02-18T14:46:17.869Z,4
2024-02-18T14:47:17.832Z,4
2024-02-18T14:48:17.897Z,5
2024-02-18T14:49:17.916Z,5
2024-02-18T14:50:18.027Z,8
2024-02-18T14:51:17.871Z,5
2024-02-18T14:52:17.871Z,4